Time,TemperatureF,DewpointF,PressureIn,WindDirection,WindDirectionDegrees,WindSpeedMPH,WindSpeedGustMPH,Humidity,HourlyPrecipIn,Conditions,Clouds,dailyrainin,SoftwareType,DateUTC
2013-07-02 00:05:00,73.4,49.5,30.22,NW,315,1.0,2.0,43,0.00,,,0.00,Wunderground v.1.15,2013-07-02 07:05:00,
2013-07-02 00:10:00,70.4,46.2,30.22,NW,308,0.0,0.0,42,0.00,,,0.00,Wunderground v.1.15,2013-07-02 07:10:00,
2013-07-02 00:20:00,68.2,45.4,30.23,NW,310,0.0,0.0,44,0.00,,,0.00,Wunderground v.1.15,2013-07-02 07:20:00,
2013-07-02 00:25:00,68.0,44.7,30.23,NW,309,0.0,0.0,43,0.00,,,0.00,Wunderground v.1.15,2013-07-02 07:25:00,
2013-07-02 00:35:00,67.7,47.3,30.23,NNE,18,0.0,0.0,48,0.00,,,0.00,Wunderground v.1.15,2013-07-02 07:35:00,
2013-07-02 00:45:00,67.3,47.5,30.23,NE,56,0.0,0.0,49,0.00,,,0.00,Wunderground v.1.15,2013-07-02 07:45:00,
2013-07-02 00:50:00,67.5,45.4,30.23,SE,129,0.0,0.0,45,0.00,,,0.00,Wunderground v.1.15,2013-07-02 07:50:00,
2013-07-02 00:55:00,67.6,45.5,30.23,SE,129,0.0,0.0,45,0.00,,,0.00,Wunderground v.1.15,2013-07-02 07:55:00,
2013-07-02 01:05:00,66.4,46.7,30.23,SE,129,0.0,0.0,49,0.00,,,0.00,Wunderground v.1.15,2013-07-02 08:05:00,
2013-07-02 01:10:00,66.7,48.0,30.23,SE,129,0.0,0.0,51,0.00,,,0.00,Wunderground v.1.15,2013-07-02 08:10:00,
2013-07-02 01:20:00,66.2,48.0,30.23,SE,129,0.0,0.0,52,0.00,,,0.00,Wunderground v.1.15,2013-07-02 08:20:00,
2013-07-02 01:25:00,65.4,49.3,30.23,SE,129,0.0,0.0,56,0.00,,,0.00,Wunderground v.1.15,2013-07-02 08:25:00,
2013-07-02 01:35:00,62.8,50.0,30.23,SE,128,0.0,0.0,63,0.00,,,0.00,Wunderground v.1.15,2013-07-02 08:35:00,
2013-07-02 01:40:00,62.0,50.1,30.23,SE,128,0.0,0.0,65,0.00,,,0.00,Wunderground v.1.15,2013-07-02 08:40:00,
2013-07-02 01:50:00,61.3,49.8,30.23,SE,128,0.0,0.0,66,0.00,,,0.00,Wunderground v.1.15,2013-07-02 08:50:00,
2013-07-02 01:55:00,61.3,48.6,30.23,SE,128,0.0,0.0,63,0.00,,,0.00,Wunderground v.1.15,2013-07-02 08:55:00,
2013-07-02 02:05:00,61.3,49.8,30.23,SE,128,0.0,0.0,66,0.00,,,0.00,Wunderground v.1.15,2013-07-02 09:05:00,
2013-07-02 02:10:00,61.8,50.3,30.23,SE,128,0.0,0.0,66,0.00,,,0.00,Wunderground v.1.15,2013-07-02 09:10:00,
2013-07-02 02:20:00,61.8,49.9,30.23,SE,128,0.0,0.0,65,0.00,,,0.00,Wunderground v.1.15,2013-07-02 09:20:00,
2013-07-02 02:25:00,61.6,49.3,30.23,SE,128,0.0,0.0,64,0.00,,,0.00,Wunderground v.1.15,2013-07-02 09:25:00,
2013-07-02 02:35:00,62.2,48.6,30.23,SE,128,0.0,0.0,61,0.00,,,0.00,Wunderground v.1.15,2013-07-02 09:35:00,
2013-07-02 02:40:00,64.1,49.0,30.23,SE,128,0.0,0.0,58,0.00,,,0.00,Wunderground v.1.15,2013-07-02 09:40:00,
2013-07-02 02:50:00,65.4,48.3,30.23,SE,128,0.0,0.0,54,0.00,,,0.00,Wunderground v.1.15,2013-07-02 09:50:00,
2013-07-02 02:55:00,66.1,47.4,30.23,SE,128,0.0,0.0,51,0.00,,,0.00,Wunderground v.1.15,2013-07-02 09:55:00,
2013-07-02 03:05:00,66.3,47.6,30.23,SE,128,0.0,0.0,51,0.00,,,0.00,Wunderground v.1.15,2013-07-02 10:05:00,
2013-07-02 03:10:00,65.3,48.2,30.23,SE,128,0.0,0.0,54,0.00,,,0.00,Wunderground v.1.15,2013-07-02 10:10:00,
2013-07-02 03:20:00,64.0,48.9,30.24,NW,309,0.0,0.0,58,0.00,,,0.00,Wunderground v.1.15,2013-07-02 10:20:00,
2013-07-02 03:25:00,62.8,49.1,30.24,North,8,0.0,0.0,61,0.00,,,0.00,Wunderground v.1.15,2013-07-02 10:25:00,
2013-07-02 03:35:00,62.0,48.4,30.24,North,8,0.0,0.0,61,0.00,,,0.00,Wunderground v.1.15,2013-07-02 10:35:00,
2013-07-02 03:40:00,64.0,48.0,30.24,ENE,69,0.0,0.0,56,0.00,,,0.00,Wunderground v.1.15,2013-07-02 10:40:00,
2013-07-02 03:50:00,63.2,49.5,30.24,SE,129,0.0,0.0,61,0.00,,,0.00,Wunderground v.1.15,2013-07-02 10:50:00,
2013-07-02 03:55:00,61.7,49.0,30.24,SE,130,0.0,0.0,63,0.00,,,0.00,Wunderground v.1.15,2013-07-02 10:55:00,
2013-07-02 04:05:00,61.8,49.9,30.25,SE,129,0.0,0.0,65,0.00,,,0.00,Wunderground v.1.15,2013-07-02 11:05:00,
2013-07-02 04:10:00,60.7,49.7,30.25,SE,129,0.0,0.0,67,0.00,,,0.00,Wunderground v.1.15,2013-07-02 11:10:00,
2013-07-02 04:20:00,63.6,49.5,30.26,SE,129,0.0,0.0,60,0.00,,,0.00,Wunderground v.1.15,2013-07-02 11:20:00,
2013-07-02 04:25:00,62.4,49.6,30.26,SE,129,0.0,0.0,63,0.00,,,0.00,Wunderground v.1.15,2013-07-02 11:25:00,
2013-07-02 04:35:00,60.5,48.7,30.26,ESE,110,0.0,0.0,65,0.00,,,0.00,Wunderground v.1.15,2013-07-02 11:35:00,
2013-07-02 04:40:00,61.5,50.0,30.26,WNW,302,0.0,0.0,66,0.00,,,0.00,Wunderground v.1.15,2013-07-02 11:40:00,
2013-07-02 04:50:00,61.6,49.3,30.26,NNE,16,0.0,0.0,64,0.00,,,0.00,Wunderground v.1.15,2013-07-02 11:50:00,
2013-07-02 04:55:00,61.4,49.1,30.26,NNE,18,0.0,0.0,64,0.00,,,0.00,Wunderground v.1.15,2013-07-02 11:55:00,
2013-07-02 05:05:00,61.3,50.2,30.26,NNE,16,0.0,0.0,67,0.00,,,0.00,Wunderground v.1.15,2013-07-02 12:05:00,
2013-07-02 05:10:00,61.3,49.4,30.27,East,92,0.0,0.0,65,0.00,,,0.00,Wunderground v.1.15,2013-07-02 12:10:00,
2013-07-02 05:20:00,61.8,48.6,30.27,SE,125,0.0,0.0,62,0.00,,,0.00,Wunderground v.1.15,2013-07-02 12:20:00,
2013-07-02 05:25:00,62.7,48.2,30.27,SE,128,0.0,0.0,59,0.00,,,0.00,Wunderground v.1.15,2013-07-02 12:25:00,
2013-07-02 05:35:00,64.2,48.2,30.27,SE,128,1.0,3.0,56,0.00,,,0.00,Wunderground v.1.15,2013-07-02 12:35:00,
2013-07-02 05:40:00,65.1,48.5,30.27,SE,134,3.0,3.0,55,0.00,,,0.00,Wunderground v.1.15,2013-07-02 12:40:00,
2013-07-02 05:50:00,65.9,48.3,30.28,SE,136,1.0,3.0,53,0.00,,,0.00,Wunderground v.1.15,2013-07-02 12:50:00,
2013-07-02 05:55:00,66.4,48.2,30.28,SSE,160,2.0,3.0,52,0.00,,,0.00,Wunderground v.1.15,2013-07-02 12:55:00,
2013-07-02 06:05:00,67.5,48.2,30.29,South,170,1.0,2.0,50,0.00,,,0.00,Wunderground v.1.15,2013-07-02 13:05:00,
2013-07-02 06:10:00,67.3,46.9,30.29,South,174,1.0,2.0,48,0.00,,,0.00,Wunderground v.1.15,2013-07-02 13:10:00,
2013-07-02 06:20:00,67.1,47.3,30.30,SE,135,1.0,1.0,49,0.00,,,0.00,Wunderground v.1.15,2013-07-02 13:20:00,
2013-07-02 06:25:00,67.5,47.7,30.29,SSE,152,1.0,1.0,49,0.00,,,0.00,Wunderground v.1.15,2013-07-02 13:25:00,
2013-07-02 06:35:00,69.6,47.9,30.30,SSE,163,1.0,1.0,46,0.00,,,0.00,Wunderground v.1.15,2013-07-02 13:35:00,
2013-07-02 06:40:00,70.3,47.9,30.30,SW,214,1.0,1.0,45,0.00,,,0.00,Wunderground v.1.15,2013-07-02 13:40:00,
2013-07-02 06:50:00,71.8,48.7,30.30,SSW,202,2.0,2.0,44,0.00,,,0.00,Wunderground v.1.15,2013-07-02 13:50:00,
2013-07-02 06:55:00,72.6,49.4,30.31,SSW,193,2.0,3.0,44,0.00,,,0.00,Wunderground v.1.15,2013-07-02 13:55:00,
2013-07-02 07:05:00,73.6,48.4,30.31,SSW,207,3.0,6.0,41,0.00,,,0.00,Wunderground v.1.15,2013-07-02 14:05:00,
2013-07-02 07:10:00,74.3,49.7,30.32,ESE,118,4.0,5.0,42,0.00,,,0.00,Wunderground v.1.15,2013-07-02 14:10:00,
2013-07-02 07:20:00,75.8,50.4,30.32,South,176,6.0,6.0,41,0.00,,,0.00,Wunderground v.1.15,2013-07-02 14:20:00,
2013-07-02 07:25:00,76.4,51.0,30.32,SSE,162,6.0,7.0,41,0.00,,,0.00,Wunderground v.1.15,2013-07-02 14:25:00,
2013-07-02 07:35:00,77.8,52.2,30.32,South,180,6.0,7.0,41,0.00,,,0.00,Wunderground v.1.15,2013-07-02 14:35:00,
2013-07-02 07:40:00,78.3,52.0,30.33,ESE,121,6.0,7.0,40,0.00,,,0.00,Wunderground v.1.15,2013-07-02 14:40:00,
2013-07-02 07:50:00,78.3,52.7,30.33,SSW,203,10.0,10.0,41,0.00,,,0.00,Wunderground v.1.15,2013-07-02 14:50:00,
2013-07-02 07:55:00,78.4,52.7,30.32,SSW,197,10.0,10.0,41,0.00,,,0.00,Wunderground v.1.15,2013-07-02 14:55:00,
2013-07-02 08:05:00,78.8,53.1,30.32,SSW,210,8.0,15.0,41,0.00,,,0.00,Wunderground v.1.15,2013-07-02 15:05:00,
2013-07-02 08:10:00,78.7,53.7,30.33,WSW,242,11.0,11.0,42,0.00,,,0.00,Wunderground v.1.15,2013-07-02 15:10:00,
2013-07-02 08:20:00,79.2,53.5,30.33,SW,221,9.0,9.0,41,0.00,,,0.00,Wunderground v.1.15,2013-07-02 15:20:00,
2013-07-02 08:25:00,79.3,52.9,30.33,South,177,9.0,10.0,40,0.00,,,0.00,Wunderground v.1.15,2013-07-02 15:25:00,
2013-07-02 08:35:00,79.6,53.1,30.33,SW,217,10.0,10.0,40,0.00,,,0.00,Wunderground v.1.15,2013-07-02 15:35:00,
2013-07-02 08:40:00,79.6,53.1,30.33,SSE,156,10.0,10.0,40,0.00,,,0.00,Wunderground v.1.15,2013-07-02 15:40:00,
2013-07-02 08:50:00,79.6,53.1,30.33,SSW,210,9.0,10.0,40,0.00,,,0.00,Wunderground v.1.15,2013-07-02 15:50:00,
2013-07-02 08:55:00,79.8,53.3,30.33,SW,219,9.0,10.0,40,0.00,,,0.00,Wunderground v.1.15,2013-07-02 15:55:00,
2013-07-02 09:05:00,80.7,53.4,30.33,South,171,8.0,9.0,39,0.00,,,0.00,Wunderground v.1.15,2013-07-02 16:05:00,
2013-07-02 09:10:00,80.8,52.8,30.32,SW,217,9.0,15.0,38,0.00,,,0.00,Wunderground v.1.15,2013-07-02 16:10:00,
2013-07-02 09:20:00,81.1,53.8,30.32,SSE,160,9.0,9.0,39,0.00,,,0.00,Wunderground v.1.15,2013-07-02 16:20:00,
2013-07-02 09:25:00,81.1,53.8,30.32,SSW,212,9.0,11.0,39,0.00,,,0.00,Wunderground v.1.15,2013-07-02 16:25:00,
2013-07-02 09:35:00,82.7,53.8,30.32,SSE,155,8.0,8.0,37,0.00,,,0.00,Wunderground v.1.15,2013-07-02 16:35:00,
2013-07-02 09:40:00,82.3,53.4,30.32,South,184,8.0,9.0,37,0.00,,,0.00,Wunderground v.1.15,2013-07-02 16:40:00,
2013-07-02 09:50:00,82.5,54.3,30.32,SSE,166,8.0,9.0,38,0.00,,,0.00,Wunderground v.1.15,2013-07-02 16:50:00,
2013-07-02 09:55:00,82.8,53.9,30.31,SSW,195,6.0,9.0,37,0.00,,,0.00,Wunderground v.1.15,2013-07-02 16:55:00,
2013-07-02 10:00:00,83.7,54.7,30.32,WSW,245,7.0,7.0,37,0.00,,,0.00,Wunderground v.1.15,2013-07-02 17:00:00,
2013-07-02 10:10:00,83.9,54.8,30.32,SW,219,7.0,10.0,37,0.00,,,0.00,Wunderground v.1.15,2013-07-02 17:10:00,
2013-07-02 10:20:00,85.0,54.3,30.31,South,187,7.0,10.0,35,0.00,,,0.00,Wunderground v.1.15,2013-07-02 17:20:00,
2013-07-02 10:25:00,85.3,55.3,30.31,South,176,7.0,10.0,36,0.00,,,0.00,Wunderground v.1.15,2013-07-02 17:25:00,
2013-07-02 10:35:00,85.8,54.2,30.31,SE,146,5.0,9.0,34,0.00,,,0.00,Wunderground v.1.15,2013-07-02 17:35:00,
2013-07-02 10:40:00,85.8,55.0,30.31,SW,229,5.0,5.0,35,0.00,,,0.00,Wunderground v.1.15,2013-07-02 17:40:00,
2013-07-02 10:50:00,86.7,54.2,30.31,WSW,243,4.0,4.0,33,0.00,,,0.00,Wunderground v.1.15,2013-07-02 17:50:00,
2013-07-02 10:55:00,87.7,54.2,30.30,WSW,242,3.0,6.0,32,0.00,,,0.00,Wunderground v.1.15,2013-07-02 17:55:00,
2013-07-02 11:05:00,87.5,54.0,30.30,SSW,204,5.0,9.0,32,0.00,,,0.00,Wunderground v.1.15,2013-07-02 18:05:00,
2013-07-02 11:10:00,88.1,54.5,30.30,WSW,256,5.0,5.0,32,0.00,,,0.00,Wunderground v.1.15,2013-07-02 18:10:00,
2013-07-02 11:20:00,88.4,53.9,30.30,West,273,4.0,8.0,31,0.00,,,0.00,Wunderground v.1.15,2013-07-02 18:20:00,
2013-07-02 11:25:00,88.4,54.8,30.30,NW,319,4.0,8.0,32,0.00,,,0.00,Wunderground v.1.15,2013-07-02 18:25:00,
2013-07-02 11:35:00,88.4,54.8,30.29,WNW,283,4.0,5.0,32,0.00,,,0.00,Wunderground v.1.15,2013-07-02 18:35:00,
2013-07-02 11:40:00,88.5,53.1,30.29,WNW,285,5.0,5.0,30,0.00,,,0.00,Wunderground v.1.15,2013-07-02 18:40:00,
2013-07-02 11:50:00,88.8,54.3,30.29,West,271,5.0,5.0,31,0.00,,,0.00,Wunderground v.1.15,2013-07-02 18:50:00,
2013-07-02 11:55:00,88.7,55.1,30.28,SSW,197,4.0,5.0,32,0.00,,,0.00,Wunderground v.1.15,2013-07-02 18:55:00,
2013-07-02 12:05:00,89.9,54.3,30.28,SW,234,5.0,5.0,30,0.00,,,0.00,Wunderground v.1.15,2013-07-02 19:05:00,
2013-07-02 12:10:00,89.5,54.0,30.28,SW,225,6.0,6.0,30,0.00,,,0.00,Wunderground v.1.15,2013-07-02 19:10:00,
2013-07-02 12:20:00,90.1,53.6,30.27,West,271,4.0,4.0,29,0.00,,,0.00,Wunderground v.1.15,2013-07-02 19:20:00,
2013-07-02 12:25:00,90.7,54.1,30.27,NW,308,4.0,5.0,29,0.00,,,0.00,Wunderground v.1.15,2013-07-02 19:25:00,
2013-07-02 12:35:00,91.1,53.5,30.27,South,179,6.0,7.0,28,0.00,,,0.00,Wunderground v.1.15,2013-07-02 19:35:00,
2013-07-02 12:40:00,92.6,53.7,30.26,South,186,3.0,3.0,27,0.00,,,0.00,Wunderground v.1.15,2013-07-02 19:40:00,
2013-07-02 12:50:00,93.1,51.0,30.26,NW,319,5.0,8.0,24,0.00,,,0.00,Wunderground v.1.15,2013-07-02 19:50:00,
2013-07-02 12:55:00,92.5,51.6,30.26,NW,323,6.0,8.0,25,0.00,,,0.00,Wunderground v.1.15,2013-07-02 19:55:00,
2013-07-02 13:05:00,92.4,51.5,30.26,NW,315,7.0,7.0,25,0.00,,,0.00,Wunderground v.1.15,2013-07-02 20:05:00,
2013-07-02 13:10:00,93.2,51.0,30.25,West,266,7.0,7.0,24,0.00,,,0.00,Wunderground v.1.15,2013-07-02 20:10:00,
2013-07-02 13:20:00,93.2,51.0,30.25,SW,221,4.0,4.0,24,0.00,,,0.00,Wunderground v.1.15,2013-07-02 20:20:00,
2013-07-02 13:25:00,93.8,50.4,30.24,WNW,291,4.0,4.0,23,0.00,,,0.00,Wunderground v.1.15,2013-07-02 20:25:00,
2013-07-02 13:35:00,94.2,50.7,30.24,West,264,5.0,5.0,23,0.00,,,0.00,Wunderground v.1.15,2013-07-02 20:35:00,
2013-07-02 13:40:00,94.4,50.9,30.24,West,259,5.0,7.0,23,0.00,,,0.00,Wunderground v.1.15,2013-07-02 20:40:00,
2013-07-02 13:50:00,94.2,50.7,30.23,NNW,328,6.0,11.0,23,0.00,,,0.00,Wunderground v.1.15,2013-07-02 20:50:00,
2013-07-02 13:55:00,93.9,49.3,30.23,West,274,6.0,11.0,22,0.00,,,0.00,Wunderground v.1.15,2013-07-02 20:55:00,
2013-07-02 14:05:00,94.7,49.9,30.22,NW,319,7.0,10.0,22,0.00,,,0.00,Wunderground v.1.15,2013-07-02 21:05:00,
2013-07-02 14:10:00,94.5,49.8,30.22,WNW,287,7.0,8.0,22,0.00,,,0.00,Wunderground v.1.15,2013-07-02 21:10:00,
2013-07-02 14:20:00,94.1,50.6,30.21,WNW,290,8.0,13.0,23,0.00,,,0.00,Wunderground v.1.15,2013-07-02 21:20:00,
2013-07-02 14:25:00,93.9,49.3,30.21,WNW,294,9.0,13.0,22,0.00,,,0.00,Wunderground v.1.15,2013-07-02 21:25:00,
2013-07-02 14:35:00,95.4,50.5,30.20,WNW,287,6.0,9.0,22,0.00,,,0.00,Wunderground v.1.15,2013-07-02 21:35:00,
2013-07-02 14:40:00,95.9,49.7,30.20,West,268,6.0,6.0,21,0.00,,,0.00,Wunderground v.1.15,2013-07-02 21:40:00,
2013-07-02 14:50:00,95.2,49.1,30.20,West,267,7.0,7.0,21,0.00,,,0.00,Wunderground v.1.15,2013-07-02 21:50:00,
2013-07-02 14:55:00,94.3,49.6,30.19,West,275,7.0,7.0,22,0.00,,,0.00,Wunderground v.1.15,2013-07-02 21:55:00,
2013-07-02 15:05:00,93.9,49.3,30.18,WNW,295,6.0,7.0,22,0.00,,,0.00,Wunderground v.1.15,2013-07-02 22:05:00,
2013-07-02 15:10:00,93.1,48.6,30.18,WNW,302,7.0,7.0,22,0.00,,,0.00,Wunderground v.1.15,2013-07-02 22:10:00,
2013-07-02 15:20:00,91.4,50.6,30.18,WNW,302,7.0,7.0,25,0.00,,,0.00,Wunderground v.1.15,2013-07-02 22:20:00,
2013-07-02 15:25:00,89.9,51.4,30.19,NNW,330,6.0,7.0,27,0.00,,,0.00,Wunderground v.1.15,2013-07-02 22:25:00,
2013-07-02 15:35:00,89.5,49.0,30.19,WNW,283,4.0,7.0,25,0.00,,,0.00,Wunderground v.1.15,2013-07-02 22:35:00,
2013-07-02 15:40:00,89.4,48.9,30.17,West,279,3.0,3.0,25,0.00,,,0.00,Wunderground v.1.15,2013-07-02 22:40:00,
2013-07-02 15:50:00,89.6,48.0,30.18,NW,309,5.0,5.0,24,0.00,,,0.00,Wunderground v.1.15,2013-07-02 22:50:00,
2013-07-02 15:55:00,89.2,44.2,30.18,NW,314,8.0,8.0,21,0.00,,,0.00,Wunderground v.1.15,2013-07-02 22:55:00,
2013-07-02 16:05:00,88.4,48.1,30.18,SW,228,4.0,8.0,25,0.00,,,0.00,Wunderground v.1.15,2013-07-02 23:05:00,
2013-07-02 16:10:00,88.2,50.0,30.18,SW,232,1.0,2.0,27,0.00,,,0.00,Wunderground v.1.15,2013-07-02 23:10:00,
2013-07-02 16:20:00,82.6,48.9,30.19,NE,51,6.0,6.0,31,0.00,,,0.00,Wunderground v.1.15,2013-07-02 23:20:00,
2013-07-02 16:25:00,80.4,50.2,30.19,NE,47,7.0,7.0,35,0.00,,,0.00,Wunderground v.1.15,2013-07-02 23:25:00,
2013-07-02 16:35:00,81.0,53.7,30.19,ESE,109,8.0,8.0,39,0.00,,,0.00,Wunderground v.1.15,2013-07-02 23:35:00,
2013-07-02 16:40:00,79.5,53.7,30.19,SE,145,6.0,6.0,41,0.00,,,0.00,Wunderground v.1.15,2013-07-02 23:40:00,
2013-07-02 16:50:00,79.2,50.7,30.17,SW,231,4.0,6.0,37,0.00,,,0.00,Wunderground v.1.15,2013-07-02 23:50:00,
2013-07-02 16:55:00,79.2,49.9,30.17,SW,224,4.0,6.0,36,0.00,,,0.00,Wunderground v.1.15,2013-07-02 23:55:00,
2013-07-02 17:00:00,79.2,52.8,30.18,SE,124,5.0,5.0,40,0.00,,,0.00,Wunderground v.1.15,2013-07-03 00:00:00,
2013-07-02 17:05:00,77.7,54.0,30.19,East,98,5.0,7.0,44,0.00,,,0.00,Wunderground v.1.15,2013-07-03 00:05:00,
2013-07-02 17:10:00,76.3,55.7,30.20,East,91,5.0,5.0,49,0.00,,,0.00,Wunderground v.1.15,2013-07-03 00:10:00,
2013-07-02 17:20:00,75.3,54.8,30.20,ESE,121,5.0,5.0,49,0.00,,,0.00,Wunderground v.1.15,2013-07-03 00:20:00,
2013-07-02 17:25:00,75.5,55.0,30.21,SE,129,5.0,8.0,49,0.00,,,0.00,Wunderground v.1.15,2013-07-03 00:25:00,
2013-07-02 17:35:00,75.3,54.8,30.24,ESE,117,4.0,5.0,49,0.00,,,0.00,Wunderground v.1.15,2013-07-03 00:35:00,
2013-07-02 17:40:00,75.4,55.5,30.25,East,81,3.0,5.0,50,0.00,,,0.00,Wunderground v.1.15,2013-07-03 00:40:00,
2013-07-02 17:50:00,73.8,52.9,30.28,ENE,75,7.0,7.0,48,0.21,,,0.02,Wunderground v.1.15,2013-07-03 00:50:00,
2013-07-02 17:55:00,71.1,54.1,30.27,SSW,212,5.0,7.0,55,0.25,,,0.04,Wunderground v.1.15,2013-07-03 00:55:00,
2013-07-02 18:05:00,68.4,55.3,30.21,SSW,204,7.0,14.0,63,0.17,,,0.07,Wunderground v.1.15,2013-07-03 01:05:00,
2013-07-02 18:10:00,68.1,54.1,30.19,SSW,195,8.0,8.0,61,0.07,,,0.07,Wunderground v.1.15,2013-07-03 01:10:00,
2013-07-02 18:15:00,69.3,54.8,30.19,NW,319,7.0,8.0,60,0.04,,,0.07,Wunderground v.1.15,2013-07-03 01:15:00,
2013-07-02 18:20:00,69.0,54.5,30.18,SW,221,5.0,5.0,60,0.00,,,0.07,Wunderground v.1.15,2013-07-03 01:20:00,
2013-07-02 18:25:00,69.6,53.7,30.18,West,259,4.0,5.0,57,0.00,,,0.07,Wunderground v.1.15,2013-07-03 01:25:00,
2013-07-02 18:35:00,70.7,53.7,30.18,South,190,4.0,8.0,55,0.00,,,0.07,Wunderground v.1.15,2013-07-03 01:35:00,
2013-07-02 18:40:00,71.0,53.5,30.19,ESE,119,3.0,4.0,54,0.00,,,0.07,Wunderground v.1.15,2013-07-03 01:40:00,
2013-07-02 18:50:00,70.3,54.8,30.26,ESE,109,7.0,10.0,58,0.00,,,0.07,Wunderground v.1.15,2013-07-03 01:50:00,
2013-07-02 18:55:00,71.4,53.9,30.24,SE,131,8.0,13.0,54,0.00,,,0.07,Wunderground v.1.15,2013-07-03 01:55:00,
2013-07-02 19:05:00,72.2,54.1,30.25,ESE,110,5.0,7.0,53,0.00,,,0.07,Wunderground v.1.15,2013-07-03 02:05:00,
2013-07-02 19:10:00,71.9,54.9,30.25,SSE,148,4.0,4.0,55,0.00,,,0.07,Wunderground v.1.15,2013-07-03 02:10:00,
2013-07-02 19:20:00,71.4,54.9,30.24,SSE,152,2.0,2.0,56,0.00,,,0.07,Wunderground v.1.15,2013-07-03 02:20:00,
2013-07-02 19:30:00,71.0,54.0,30.24,SW,232,0.0,0.0,55,0.00,,,0.07,Wunderground v.1.15,2013-07-03 02:30:00,
2013-07-02 19:35:00,71.2,53.7,30.24,West,264,0.0,1.0,54,0.00,,,0.07,Wunderground v.1.15,2013-07-03 02:35:00,
2013-07-02 19:45:00,71.5,54.0,30.24,WNW,282,0.0,0.0,54,0.00,,,0.07,Wunderground v.1.15,2013-07-03 02:45:00,
2013-07-02 19:50:00,71.1,54.1,30.24,North,360,0.0,0.0,55,0.00,,,0.07,Wunderground v.1.15,2013-07-03 02:50:00,
2013-07-02 19:55:00,70.7,54.7,30.24,North,6,0.0,0.0,57,0.00,,,0.07,Wunderground v.1.15,2013-07-03 02:55:00,
2013-07-02 20:05:00,69.8,55.7,30.25,NW,319,2.0,2.0,61,0.00,,,0.07,Wunderground v.1.15,2013-07-03 03:05:00,
2013-07-02 20:10:00,69.6,56.0,30.24,NNE,15,3.0,4.0,62,0.00,,,0.07,Wunderground v.1.15,2013-07-03 03:10:00,
2013-07-02 20:20:00,69.8,55.7,30.25,North,352,3.0,3.0,61,0.00,,,0.07,Wunderground v.1.15,2013-07-03 03:20:00,
2013-07-02 20:25:00,70.1,55.1,30.24,NE,48,2.0,3.0,59,0.00,,,0.07,Wunderground v.1.15,2013-07-03 03:25:00,
2013-07-02 20:35:00,69.5,56.8,30.24,ESE,120,1.0,2.0,64,0.00,,,0.07,Wunderground v.1.15,2013-07-03 03:35:00,
2013-07-02 20:40:00,68.8,56.6,30.24,East,87,2.0,2.0,65,0.00,,,0.07,Wunderground v.1.15,2013-07-03 03:40:00,
2013-07-02 20:50:00,68.6,56.8,30.24,ESE,121,1.0,2.0,66,0.00,,,0.07,Wunderground v.1.15,2013-07-03 03:50:00,
2013-07-02 20:55:00,68.2,56.8,30.24,ESE,104,2.0,4.0,67,0.00,,,0.07,Wunderground v.1.15,2013-07-03 03:55:00,
2013-07-02 21:05:00,67.9,56.9,30.24,SE,129,2.0,3.0,68,0.00,,,0.07,Wunderground v.1.15,2013-07-03 04:05:00,
2013-07-02 21:10:00,67.7,57.2,30.25,SE,128,0.0,0.0,69,0.00,,,0.07,Wunderground v.1.15,2013-07-03 04:10:00,
2013-07-02 21:15:00,67.5,57.0,30.24,SE,129,1.0,1.0,69,0.00,,,0.07,Wunderground v.1.15,2013-07-03 04:15:00,
2013-07-02 21:20:00,67.4,57.3,30.24,ESE,117,1.0,2.0,70,0.00,,,0.07,Wunderground v.1.15,2013-07-03 04:20:00,
2013-07-02 21:25:00,67.5,57.0,30.24,SE,125,1.0,3.0,69,0.00,,,0.07,Wunderground v.1.15,2013-07-03 04:25:00,
2013-07-02 21:35:00,67.6,56.7,30.23,SE,127,2.0,2.0,68,0.00,,,0.07,Wunderground v.1.15,2013-07-03 04:35:00,
2013-07-02 21:40:00,67.7,56.3,30.24,SE,124,2.0,2.0,67,0.00,,,0.07,Wunderground v.1.15,2013-07-03 04:40:00,
2013-07-02 21:45:00,67.9,56.5,30.24,ESE,111,2.0,2.0,67,0.00,,,0.07,Wunderground v.1.15,2013-07-03 04:45:00,
2013-07-02 21:50:00,68.0,56.2,30.24,ESE,122,2.0,2.0,66,0.00,,,0.07,Wunderground v.1.15,2013-07-03 04:50:00,
2013-07-02 21:55:00,68.1,55.9,30.24,SE,125,2.0,2.0,65,0.00,,,0.07,Wunderground v.1.15,2013-07-03 04:55:00,
2013-07-02 22:05:00,68.2,55.6,30.24,SE,132,2.0,3.0,64,0.00,,,0.07,Wunderground v.1.15,2013-07-03 05:05:00,
2013-07-02 22:10:00,68.1,55.5,30.24,SE,134,2.0,2.0,64,0.00,,,0.07,Wunderground v.1.15,2013-07-03 05:10:00,
2013-07-02 22:20:00,67.6,55.8,30.24,SE,127,0.0,2.0,66,0.00,,,0.07,Wunderground v.1.15,2013-07-03 05:20:00,
2013-07-02 22:25:00,67.5,55.7,30.24,SE,139,1.0,2.0,66,0.00,,,0.07,Wunderground v.1.15,2013-07-03 05:25:00,
2013-07-02 22:35:00,67.1,55.8,30.24,SE,129,1.0,1.0,67,0.00,,,0.07,Wunderground v.1.15,2013-07-03 05:35:00,
2013-07-02 22:40:00,67.0,55.3,30.24,SE,128,1.0,1.0,66,0.00,,,0.07,Wunderground v.1.15,2013-07-03 05:40:00,
2013-07-02 22:50:00,67.3,54.7,30.24,ESE,120,0.0,2.0,64,0.00,,,0.07,Wunderground v.1.15,2013-07-03 05:50:00,
2013-07-02 22:55:00,67.5,54.9,30.24,SE,134,1.0,2.0,64,0.00,,,0.07,Wunderground v.1.15,2013-07-03 05:55:00,
2013-07-02 23:00:00,67.6,54.6,30.24,SE,128,1.0,1.0,63,0.00,,,0.07,Wunderground v.1.15,2013-07-03 06:00:00,
2013-07-02 23:05:00,67.3,55.1,30.24,SE,128,1.0,1.0,65,0.00,,,0.07,Wunderground v.1.15,2013-07-03 06:05:00,
2013-07-02 23:15:00,66.2,55.3,30.24,SSE,163,0.0,0.0,68,0.00,,,0.07,Wunderground v.1.15,2013-07-03 06:15:00,
2013-07-02 23:20:00,65.9,55.0,30.24,SE,127,0.0,0.0,68,0.00,,,0.07,Wunderground v.1.15,2013-07-03 06:20:00,
2013-07-02 23:30:00,66.4,55.1,30.24,SE,145,1.0,1.0,67,0.00,,,0.07,Wunderground v.1.15,2013-07-03 06:30:00,
2013-07-02 23:35:00,66.2,55.7,30.24,SSE,152,1.0,1.0,69,0.00,,,0.07,Wunderground v.1.15,2013-07-03 06:35:00,
2013-07-02 23:40:00,66.1,55.6,30.25,ESE,114,1.0,2.0,69,0.00,,,0.07,Wunderground v.1.15,2013-07-03 06:40:00,
2013-07-02 23:45:00,66.3,55.4,30.25,ESE,110,2.0,3.0,68,0.00,,,0.07,Wunderground v.1.15,2013-07-03 06:45:00,
2013-07-02 23:50:00,66.7,55.4,30.25,ESE,120,2.0,3.0,67,0.00,,,0.07,Wunderground v.1.15,2013-07-03 06:50:00,
2013-07-02 23:55:00,66.9,55.6,30.25,SE,134,2.0,3.0,67,0.00,,,0.07,Wunderground v.1.15,2013-07-03 06:55:00,